Time;durP1;ratioP1;P1;durP2;ratioP2;P2;SDS_P1;SDS_P2;PMS_P1;PMS_P2;Temp;Humidity;BMP_temperature;BMP_pressure;BME280_temperature;BME280_humidity;BME280_pressure;Samples;Min_cycle;Max_cycle;Signal;HPM_P1;HPM_P2
2023/06/21 00:01:07;;;;;;;5.35;4.10;;;;;;;20.21;62.49;96655.56;10510776;28;20090;-71
2023/06/21 00:06:31;;;;;;;4.47;4.07;;;;;;;20.21;62.43;96643.94;10481847;28;20044;-71
2023/06/21 00:11:50;;;;;;;4.63;4.18;;;;;;;20.21;62.36;96642.03;10496021;28;20043;-71
2023/06/21 00:17:09;;;;;;;4.63;4.00;;;;;;;20.23;62.60;96639.78;10481156;28;20044;-71
2023/06/21 00:22:30;;;;;;;4.82;4.32;;;;;;;20.23;62.50;96638.97;10494794;28;20046;-72
2023/06/21 00:27:50;;;;;;;4.85;4.35;;;;;;;20.23;62.47;96645.19;10481294;28;20378;-71
2023/06/21 00:33:10;;;;;;;5.43;4.13;;;;;;;20.22;62.46;96635.47;10495326;28;20068;-71
2023/06/21 00:38:35;;;;;;;5.28;4.13;;;;;;;20.21;62.60;96633.91;10495179;28;20051;-71
2023/06/21 00:43:55;;;;;;;4.82;4.32;;;;;;;20.23;62.47;96636.25;10481171;28;20046;-71
2023/06/21 00:49:15;;;;;;;11.60;4.57;;;;;;;20.22;62.60;96657.13;10495149;28;20106;-72
2023/06/21 00:54:35;;;;;;;4.90;3.90;;;;;;;20.22;62.59;96662.53;10495000;28;20443;-71
2023/06/21 00:59:55;;;;;;;4.93;3.90;;;;;;;20.24;62.76;96659.50;10495602;28;20036;-71
2023/06/21 01:05:16;;;;;;;5.10;4.10;;;;;;;20.24;62.58;96660.28;10468825;28;20053;-72
2023/06/21 01:10:35;;;;;;;4.35;3.88;;;;;;;20.23;62.55;96661.41;10494939;28;20044;-72
2023/06/21 01:16:03;;;;;;;5.25;4.15;;;;;;;20.23;62.53;96674.94;10494542;28;20041;-72
2023/06/21 01:21:26;;;;;;;4.53;4.10;;;;;;;20.24;62.38;96676.50;10480588;28;20119;-72
2023/06/21 01:26:58;;;;;;;4.30;3.90;;;;;;;20.23;62.65;96674.94;10466573;28;20440;-72
2023/06/21 01:32:18;;;;;;;9.73;4.38;;;;;;;20.23;62.64;96674.94;10509353;28;20079;-72
2023/06/21 01:37:42;;;;;;;4.25;3.85;;;;;;;20.23;62.67;96683.06;10499978;28;20378;-72
2023/06/21 01:43:02;;;;;;;4.43;4.03;;;;;;;20.23;62.77;96677.66;10487849;28;20037;-72
2023/06/21 01:48:22;;;;;;;6.28;4.03;;;;;;;20.22;62.64;96673.34;10501359;28;20044;-72
2023/06/21 01:53:43;;;;;;;4.38;3.97;;;;;;;20.24;62.67;96687.34;10473938;28;20037;-72
2023/06/21 01:59:03;;;;;;;4.18;3.78;;;;;;;20.23;62.60;96685.78;10500801;28;20047;-72
2023/06/21 02:04:23;;;;;;;5.95;4.22;;;;;;;20.23;62.71;96703.88;10477001;28;20056;-72
2023/06/21 02:09:43;;;;;;;4.50;4.10;;;;;;;20.22;62.74;96713.94;10500482;28;20040;-72
2023/06/21 02:15:04;;;;;;;4.00;3.70;;;;;;;20.23;62.61;96712.00;10500378;28;20048;-72
2023/06/21 02:20:23;;;;;;;4.38;3.90;;;;;;;20.23;62.68;96707.41;10471894;28;20040;-72
2023/06/21 02:25:43;;;;;;;5.00;4.45;;;;;;;20.23;62.72;96702.00;10485772;28;20051;-72
2023/06/21 02:31:04;;;;;;;4.20;3.80;;;;;;;20.23;62.61;96702.00;10485833;28;20043;-72
2023/06/21 02:36:27;;;;;;;4.20;3.80;;;;;;;20.23;62.60;96693.88;10514587;28;20041;-72
2023/06/21 02:41:47;;;;;;;5.00;4.50;;;;;;;20.22;62.75;96689.56;10514515;28;20041;-72
2023/06/21 02:47:07;;;;;;;4.28;3.88;;;;;;;20.23;62.63;96683.06;10470104;28;20044;-72
2023/06/21 02:52:27;;;;;;;4.57;4.18;;;;;;;20.23;62.73;96688.47;10484939;28;20040;-72
2023/06/21 02:57:47;;;;;;;4.55;4.15;;;;;;;20.22;62.72;96689.56;10499146;28;20049;-73
2023/06/21 03:03:07;;;;;;;4.28;3.88;;;;;;;20.23;62.59;96691.19;10507515;28;20052;-72
2023/06/21 03:08:29;;;;;;;4.40;3.88;;;;;;;20.22;62.53;96692.28;10484923;28;20048;-72
2023/06/21 03:13:49;;;;;;;4.88;4.35;;;;;;;20.23;62.73;96706.59;10498118;28;20051;-72
2023/06/21 03:19:09;;;;;;;4.68;4.28;;;;;;;20.23;62.78;96734.47;10469670;28;20040;-72
2023/06/21 03:24:32;;;;;;;4.82;4.43;;;;;;;20.23;62.62;96741.75;10483589;28;20048;-72
2023/06/21 03:29:53;;;;;;;5.85;4.40;;;;;;;20.23;62.75;96744.47;10497427;28;20040;-72
2023/06/21 03:35:17;;;;;;;4.80;4.40;;;;;;;20.24;62.79;96737.94;10497347;28;20044;-72
2023/06/21 03:40:38;;;;;;;4.97;4.47;;;;;;;20.24;62.61;96736.03;10498625;28;20131;-72
2023/06/21 03:45:58;;;;;;;4.45;4.03;;;;;;;20.23;62.70;96742.56;10496948;28;20040;-72
2023/06/21 03:51:19;;;;;;;4.82;4.40;;;;;;;20.22;62.67;96751.78;10496913;28;20044;-72
2023/06/21 03:56:39;;;;;;;5.18;4.68;;;;;;;20.23;62.68;96758.81;10496393;28;20047;-72
2023/06/21 04:01:59;;;;;;;4.72;4.32;;;;;;;20.23;62.71;96766.09;10479280;28;20063;-72
2023/06/21 04:07:19;;;;;;;4.55;4.15;;;;;;;20.23;62.78;96766.91;10482550;28;20513;-72
2023/06/21 04:12:40;;;;;;;4.57;4.15;;;;;;;20.24;62.66;96765.00;10481963;28;20045;-72
2023/06/21 04:17:59;;;;;;;5.22;4.72;;;;;;;20.23;62.58;96774.22;10495777;28;20098;-72
2023/06/21 04:23:19;;;;;;;8.88;7.97;;;;;;;20.23;63.85;96772.31;10456622;28;20044;-72
2023/06/21 04:28:40;;;;;;;14.93;13.32;;;;;;;20.26;64.30;96781.69;10467752;28;20432;-72
2023/06/21 04:34:00;;;;;;;14.93;13.43;;;;;;;20.27;65.35;96791.41;10481136;28;20064;-72
2023/06/21 04:39:21;;;;;;;15.85;14.23;;;;;;;20.26;65.26;96798.69;10509437;28;20099;-72
2023/06/21 04:44:40;;;;;;;16.13;14.50;;;;;;;20.27;65.66;96803.00;10495303;28;20048;-71
2023/06/21 04:50:00;;;;;;;15.50;13.93;;;;;;;20.29;66.89;96808.09;10508170;28;20037;-72
2023/06/21 04:55:19;;;;;;;15.18;13.55;;;;;;;20.25;66.90;96809.88;10476223;28;20484;-72
2023/06/21 05:00:39;;;;;;;13.82;12.48;;;;;;;20.08;64.70;96819.66;10493006;28;20047;-75
2023/06/21 05:05:59;;;;;;;15.68;13.02;;;;;;;20.14;66.29;96823.75;10453628;28;20163;-75
2023/06/21 05:11:19;;;;;;;15.43;12.93;;;;;;;20.20;66.37;96820.88;10489778;28;20043;-75
2023/06/21 05:16:40;;;;;;;21.83;14.27;;;;;;;20.20;65.67;96804.66;10502267;28;20049;-74
2023/06/21 05:22:00;;;;;;;21.70;15.27;;;;;;;20.21;65.04;96817.84;10502111;28;20036;-75
2023/06/21 05:27:20;;;;;;;30.23;17.40;;;;;;;20.21;64.67;96823.25;10487740;28;20049;-74
2023/06/21 05:32:40;;;;;;;28.95;17.15;;;;;;;20.21;64.35;96817.84;10501684;28;20051;-75
2023/06/21 05:37:59;;;;;;;26.92;15.95;;;;;;;20.20;64.09;96808.13;10488043;28;20056;-75
2023/06/21 05:43:19;;;;;;;27.80;17.02;;;;;;;20.20;63.92;96818.97;10498352;28;20040;-74
2023/06/21 05:48:38;;;;;;;25.70;16.63;;;;;;;20.22;63.80;96835.66;10484052;28;20044;-74
2023/06/21 05:53:58;;;;;;;28.45;16.83;;;;;;;20.23;63.84;96849.97;10497834;28;20049;-74
2023/06/21 05:59:18;;;;;;;24.02;16.92;;;;;;;20.23;63.70;96856.19;10486613;28;20188;-74
2023/06/21 06:04:38;;;;;;;27.55;16.20;;;;;;;20.22;63.64;96857.28;10486996;28;20048;-74
2023/06/21 06:09:58;;;;;;;28.60;16.58;;;;;;;20.22;63.73;96862.69;10486435;28;20562;-75
2023/06/21 06:15:18;;;;;;;26.45;16.65;;;;;;;20.22;63.59;96865.41;10501246;28;20121;-75
2023/06/21 06:20:37;;;;;;;28.70;16.75;;;;;;;20.22;63.71;96878.94;10471145;28;20482;-75
2023/06/21 06:25:57;;;;;;;25.25;16.60;;;;;;;20.23;63.71;96885.94;10500086;28;20483;-75
2023/06/21 06:31:24;;;;;;;24.77;16.17;;;;;;;20.23;63.61;96895.94;10485696;28;20043;-75
2023/06/21 06:36:43;;;;;;;24.95;15.30;;;;;;;20.23;63.60;96896.75;10485453;28;20480;-75
2023/06/21 06:42:03;;;;;;;23.13;15.73;;;;;;;20.23;63.51;96888.66;10499310;28;20044;-75
2023/06/21 06:47:23;;;;;;;24.73;15.80;;;;;;;20.22;63.58;96905.97;10499244;28;20044;-74
2023/06/21 06:52:44;;;;;;;20.95;14.77;;;;;;;20.24;63.71;96903.75;10484756;28;20037;-75
2023/06/21 06:58:03;;;;;;;23.17;15.73;;;;;;;20.24;63.66;96909.16;10498831;28;20040;-74
2023/06/21 07:03:23;;;;;;;21.90;15.43;;;;;;;20.24;63.67;96913.78;10491508;28;20057;-74
2023/06/21 07:08:44;;;;;;;21.20;15.07;;;;;;;20.24;63.59;96919.19;10484182;28;20047;-75
2023/06/21 07:14:04;;;;;;;22.25;14.68;;;;;;;20.24;63.70;96921.88;10498315;28;20481;-75
2023/06/21 07:19:24;;;;;;;20.63;15.45;;;;;;;20.25;63.65;96921.56;10483631;28;20037;-75
2023/06/21 07:24:43;;;;;;;22.58;15.23;;;;;;;20.25;63.64;96929.69;10497552;28;20047;-75
2023/06/21 07:30:04;;;;;;;21.35;14.82;;;;;;;20.26;63.62;96933.97;10497482;28;20040;-74
2023/06/21 07:35:24;;;;;;;21.92;14.85;;;;;;;20.25;63.68;96935.09;10483672;28;20036;-75
2023/06/21 07:40:44;;;;;;;20.50;14.35;;;;;;;20.25;63.65;96926.97;10468971;28;20094;-75
2023/06/21 07:46:03;;;;;;;17.48;14.07;;;;;;;20.25;63.62;96932.41;10496862;28;20074;-75
2023/06/21 07:51:23;;;;;;;20.75;14.52;;;;;;;20.25;63.64;96935.09;10511755;28;20048;-74
2023/06/21 07:56:42;;;;;;;19.33;14.02;;;;;;;20.26;63.69;96933.97;10482259;28;20552;-74
2023/06/21 08:02:03;;;;;;;18.75;13.93;;;;;;;20.26;63.65;96935.88;10493710;28;20057;-75
2023/06/21 08:07:22;;;;;;;18.98;13.57;;;;;;;20.27;63.62;96935.56;10482122;28;20094;-75
2023/06/21 08:12:41;;;;;;;17.52;13.85;;;;;;;20.27;63.73;96935.56;10481796;28;20040;-75
2023/06/21 08:18:01;;;;;;;18.10;13.20;;;;;;;20.27;63.64;96951.00;10481688;28;20106;-75
2023/06/21 08:23:20;;;;;;;18.30;13.18;;;;;;;20.27;63.80;96962.63;10481654;28;20378;-75
2023/06/21 08:28:39;;;;;;;16.95;13.48;;;;;;;20.27;63.68;96967.25;10510673;28;20393;-75
2023/06/21 08:33:59;;;;;;;17.98;13.13;;;;;;;20.27;63.77;96976.16;10510441;28;20056;-75
2023/06/21 08:39:18;;;;;;;16.58;13.02;;;;;;;20.27;63.75;96978.84;10495174;28;20040;-74
2023/06/21 08:44:37;;;;;;;16.98;12.60;;;;;;;20.28;63.88;96963.41;10496530;28;20041;-75
2023/06/21 08:49:59;;;;;;;16.83;12.63;;;;;;;20.28;63.73;96969.59;10503784;28;20044;-75
2023/06/21 08:55:20;;;;;;;16.75;13.25;;;;;;;20.28;63.82;96966.91;10489303;28;20048;-75
2023/06/21 09:00:44;;;;;;;15.65;12.60;;;;;;;20.28;63.86;96958.78;10518488;28;20045;-75
2023/06/21 09:06:10;;;;;;;15.38;12.48;;;;;;;20.28;63.88;96958.00;10503361;28;20090;-75
2023/06/21 09:11:30;;;;;;;14.85;12.63;;;;;;;20.29;63.79;96962.31;10474913;28;20044;-75
2023/06/21 09:16:50;;;;;;;15.90;12.40;;;;;;;20.29;63.74;96965.78;10502670;28;20496;-75
2023/06/21 09:22:11;;;;;;;14.95;11.98;;;;;;;20.29;63.72;96963.09;10516487;28;20041;-74
2023/06/21 09:27:30;;;;;;;14.50;11.82;;;;;;;20.29;63.78;96949.56;10474352;28;20041;-74
2023/06/21 09:32:50;;;;;;;15.60;11.75;;;;;;;20.30;63.84;96967.38;10488158;28;20515;-75
2023/06/21 09:38:23;;;;;;;16.02;12.27;;;;;;;20.30;63.99;96923.28;10488037;28;20060;-75
2023/06/21 09:43:44;;;;;;;15.77;11.75;;;;;;;20.31;63.81;96925.69;10501634;28;20138;-75
2023/06/21 09:49:10;;;;;;;14.60;11.95;;;;;;;20.30;63.92;96928.69;10501640;28;20098;-75
2023/06/21 09:54:43;;;;;;;14.68;11.50;;;;;;;20.31;63.72;96933.78;10501237;28;20044;-75
2023/06/21 10:00:05;;;;;;;15.15;11.85;;;;;;;20.30;63.86;96937.59;10501084;28;20036;-75
2023/06/21 10:05:32;;;;;;;14.45;11.18;;;;;;;20.31;63.84;96943.84;10488919;28;20075;-75
2023/06/21 10:10:52;;;;;;;12.55;10.75;;;;;;;20.31;63.85;96962.78;10500718;28;20044;-75
2023/06/21 10:16:12;;;;;;;12.57;11.27;;;;;;;20.32;63.98;96969.75;10500460;28;20052;-75
2023/06/21 10:21:33;;;;;;;13.05;11.10;;;;;;;20.33;63.99;96968.66;10499990;28;20048;-75
2023/06/21 10:26:53;;;;;;;13.77;11.43;;;;;;;20.32;63.95;96967.84;10485941;28;20040;-75
2023/06/21 10:32:13;;;;;;;13.05;11.70;;;;;;;20.32;64.12;96969.75;10499887;28;20044;-75
2023/06/21 10:37:48;;;;;;;13.73;11.35;;;;;;;20.33;64.12;96976.75;10499517;28;20041;-75
2023/06/21 10:43:08;;;;;;;12.40;11.10;;;;;;;20.32;64.06;96981.34;10499458;28;20451;-75
2023/06/21 10:48:31;;;;;;;12.48;10.98;;;;;;;20.34;64.05;96976.41;10513145;28;20052;-75
2023/06/21 10:53:52;;;;;;;12.45;10.43;;;;;;;20.33;64.08;96977.53;10499232;28;20045;-75
2023/06/21 10:59:12;;;;;;;12.32;10.70;;;;;;;20.33;64.06;96985.66;10499168;28;20082;-72
2023/06/21 11:05:10;;;;;;;12.30;10.70;;;;;;;20.34;64.15;96979.13;10488468;28;20052;-72
2023/06/21 11:10:46;;;;;;;14.00;10.63;;;;;;;20.33;64.11;96982.97;10512481;28;20511;-72
2023/06/21 11:16:16;;;;;;;12.20;10.52;;;;;;;20.34;64.09;96998.06;10498339;28;20048;-72
2023/06/21 11:21:49;;;;;;;12.23;10.50;;;;;;;20.34;64.09;96994.56;10497560;28;20497;-72
2023/06/21 11:27:09;;;;;;;12.52;10.23;;;;;;;20.34;64.11;96992.66;10512663;28;20044;-72
2023/06/21 11:32:29;;;;;;;11.50;9.90;;;;;;;20.33;64.17;96985.66;10497497;28;20063;-72
2023/06/21 11:37:50;;;;;;;11.95;10.65;;;;;;;20.34;64.12;96997.28;10512223;28;20404;-72
2023/06/21 11:43:15;;;;;;;12.27;10.07;;;;;;;20.35;64.06;96999.66;10497355;28;20047;-72
2023/06/21 11:48:39;;;;;;;11.30;10.10;;;;;;;20.36;64.06;97000.44;10496795;28;20507;-72
2023/06/21 11:53:59;;;;;;;11.05;9.93;;;;;;;20.35;63.99;96996.97;10496679;28;20067;-72
2023/06/21 11:59:18;;;;;;;11.10;10.00;;;;;;;20.36;64.08;96986.91;10496267;28;20037;-72
2023/06/21 12:04:40;;;;;;;10.75;9.52;;;;;;;20.37;64.06;96982.31;10471870;28;20052;-72
2023/06/21 12:10:01;;;;;;;12.52;10.13;;;;;;;20.38;64.20;96981.19;10496288;28;20055;-72
2023/06/21 12:15:20;;;;;;;10.65;9.55;;;;;;;20.38;64.18;96964.97;10495977;28;20546;-72
2023/06/21 12:20:40;;;;;;;12.25;9.73;;;;;;;20.37;64.11;96958.75;10495501;28;20067;-72
2023/06/21 12:26:02;;;;;;;10.35;9.32;;;;;;;20.38;64.08;96963.03;10495640;28;20041;-72
2023/06/21 12:31:22;;;;;;;11.68;10.05;;;;;;;20.39;64.09;96955.72;10495464;28;20044;-72
2023/06/21 12:36:44;;;;;;;10.68;9.60;;;;;;;20.38;64.21;96954.13;10495263;28;20040;-72
2023/06/21 12:42:05;;;;;;;9.95;8.95;;;;;;;20.38;64.16;96941.38;10481131;28;20051;-72
2023/06/21 12:47:24;;;;;;;10.77;9.73;;;;;;;20.39;64.22;96942.19;10467000;28;20040;-72
2023/06/21 12:52:44;;;;;;;9.98;9.02;;;;;;;20.39;64.06;96925.97;10494973;28;20097;-72
2023/06/21 12:58:03;;;;;;;9.95;8.95;;;;;;;20.40;64.10;96932.94;10510033;28;20040;-72
2023/06/21 13:03:22;;;;;;;9.93;8.93;;;;;;;20.40;64.26;96914.78;10473916;28;20053;-72
2023/06/21 13:08:42;;;;;;;9.95;8.98;;;;;;;20.41;64.30;96916.41;10494736;28;20053;-72
2023/06/21 13:14:05;;;;;;;9.95;8.95;;;;;;;20.40;64.20;96914.78;10494566;28;20112;-72
2023/06/21 13:19:25;;;;;;;9.90;8.90;;;;;;;20.41;64.49;96929.13;10494393;28;20401;-72
2023/06/21 13:24:45;;;;;;;9.98;8.98;;;;;;;20.42;64.56;96933.41;10508488;28;20040;-72
2023/06/21 13:30:05;;;;;;;10.70;9.55;;;;;;;20.44;64.55;96944.72;10494886;28;20052;-72
2023/06/21 13:35:25;;;;;;;8.93;8.05;;;;;;;20.43;64.88;96943.13;10501861;28;20082;-72
2023/06/21 13:40:45;;;;;;;10.00;8.63;;;;;;;20.42;64.39;96942.31;10487787;28;20078;-72
2023/06/21 13:46:04;;;;;;;9.52;8.63;;;;;;;20.44;64.51;96939.28;10487484;28;20048;-72
2023/06/21 13:51:24;;;;;;;9.68;8.60;;;;;;;20.43;64.54;96922.28;10501500;28;20037;-72
2023/06/21 13:56:43;;;;;;;9.50;8.50;;;;;;;20.44;64.69;96931.19;10487384;28;20040;-72
2023/06/21 14:02:04;;;;;;;9.80;8.77;;;;;;;20.45;64.77;96940.91;10497811;28;20561;-72
2023/06/21 14:07:24;;;;;;;9.30;8.43;;;;;;;20.46;64.85;96943.25;10502087;28;20049;-72
2023/06/21 14:12:44;;;;;;;9.05;8.15;;;;;;;20.46;64.78;96962.19;10515696;28;20041;-72
2023/06/21 14:18:03;;;;;;;9.45;8.48;;;;;;;20.45;64.62;96997.72;10500267;28;20048;-72
2023/06/21 14:23:23;;;;;;;9.60;8.60;;;;;;;20.45;64.63;97049.13;10500094;28;20040;-72
2023/06/21 14:28:42;;;;;;;9.30;8.40;;;;;;;20.45;64.47;97068.88;10500209;28;20044;-72
2023/06/21 14:34:02;;;;;;;8.57;7.70;;;;;;;20.45;64.42;97065.38;10499908;28;20044;-72
2023/06/21 14:39:21;;;;;;;8.88;8.00;;;;;;;20.45;64.36;97062.66;10485503;28;20481;-72
2023/06/21 14:44:44;;;;;;;8.88;7.97;;;;;;;20.45;64.30;97062.66;10513330;28;20052;-72
2023/06/21 14:50:04;;;;;;;8.93;8.02;;;;;;;20.45;64.44;97065.38;10499685;28;20068;-72
2023/06/21 14:55:23;;;;;;;8.27;7.47;;;;;;;20.45;64.47;97071.56;10484822;28;20048;-72
2023/06/21 15:00:43;;;;;;;8.07;7.28;;;;;;;20.47;64.35;97055.81;10498730;28;20041;-72
2023/06/21 15:06:02;;;;;;;8.32;7.57;;;;;;;20.45;64.28;97025.56;10484572;28;20058;-72
2023/06/21 15:11:23;;;;;;;8.73;7.82;;;;;;;20.46;64.40;97018.25;10497720;28;20044;-72
2023/06/21 15:16:45;;;;;;;7.82;7.20;;;;;;;20.49;64.43;97028.44;10483719;28;20044;-73
2023/06/21 15:22:04;;;;;;;8.45;6.80;;;;;;;20.49;64.25;97028.44;10499270;28;20115;-73
2023/06/21 15:27:24;;;;;;;10.30;3.00;;;;;;;20.49;64.52;97012.97;10499581;28;20154;-72
2023/06/21 15:32:44;;;;;;;5.35;2.60;;;;;;;20.49;65.19;96982.41;10511554;28;20123;-72
2023/06/21 15:38:03;;;;;;;4.80;2.60;;;;;;;20.48;66.39;96957.28;10509619;28;20672;-72
2023/06/21 15:43:22;;;;;;;3.47;2.30;;;;;;;20.48;67.71;96946.47;10509310;28;20040;-71
2023/06/21 15:48:42;;;;;;;4.25;2.03;;;;;;;20.47;68.63;96952.97;10480319;28;20051;-72
2023/06/21 15:54:02;;;;;;;5.35;1.63;;;;;;;20.44;71.19;96956.31;10511642;28;20086;-72
2023/06/21 15:59:21;;;;;;;5.07;1.60;;;;;;;20.41;71.00;96945.38;10496617;28;20488;-73
2023/06/21 16:04:40;;;;;;;3.78;1.35;;;;;;;20.39;72.23;96926.75;10501729;28;20067;-73
2023/06/21 16:10:00;;;;;;;3.88;1.60;;;;;;;20.40;72.38;96938.38;10512212;28;20052;-74
2023/06/21 16:15:19;;;;;;;5.72;1.40;;;;;;;20.35;73.24;96948.25;10524244;28;20040;-73
2023/06/21 16:20:39;;;;;;;1.70;1.35;;;;;;;20.31;73.93;96960.84;10495686;28;20040;-74
2023/06/21 16:25:58;;;;;;;4.63;1.42;;;;;;;20.32;72.55;96962.41;10495797;28;20480;-73
2023/06/21 16:31:19;;;;;;;2.53;1.30;;;;;;;20.30;73.09;96963.88;10495740;28;20089;-73
2023/06/21 16:36:39;;;;;;;7.60;1.65;;;;;;;20.30;72.78;96972.78;10467617;28;20373;-73
2023/06/21 16:42:00;;;;;;;2.70;1.60;;;;;;;20.31;72.33;96979.00;10495333;28;20481;-73
2023/06/21 16:47:19;;;;;;;4.82;1.77;;;;;;;20.28;72.69;96991.25;10510589;28;20044;-73
2023/06/21 16:52:38;;;;;;;3.13;1.40;;;;;;;20.27;72.66;97003.19;10492906;28;20041;-73
2023/06/21 16:57:58;;;;;;;4.80;1.65;;;;;;;20.19;70.74;97006.72;10506247;28;20178;-73
2023/06/21 17:03:18;;;;;;;5.25;1.90;;;;;;;20.19;72.61;97014.84;10485014;28;20055;-73
2023/06/21 17:08:37;;;;;;;5.10;1.80;;;;;;;20.20;72.62;97016.41;10514894;28;20049;-74
2023/06/21 17:14:02;;;;;;;3.30;1.73;;;;;;;20.21;73.52;97012.63;10517876;28;20488;-74
2023/06/21 17:19:21;;;;;;;4.35;1.80;;;;;;;20.21;73.60;97004.50;10489246;28;20040;-74
2023/06/21 17:24:41;;;;;;;3.63;1.98;;;;;;;20.25;72.94;97008.13;10517735;28;20045;-74
2023/06/21 17:30:02;;;;;;;5.25;2.00;;;;;;;20.26;73.09;97015.13;10498342;28;20048;-74
2023/06/21 17:35:22;;;;;;;3.85;2.10;;;;;;;20.19;74.10;97020.25;10470090;28;20040;-73
2023/06/21 17:40:42;;;;;;;7.05;2.20;;;;;;;20.24;73.41;97030.88;10498064;28;20068;-73
2023/06/21 17:46:02;;;;;;;3.10;2.13;;;;;;;20.19;73.59;97036.50;10501782;28;20070;-73
2023/06/21 17:51:23;;;;;;;3.28;2.00;;;;;;;20.15;74.20;97046.38;10501539;28;20041;-73
2023/06/21 17:56:42;;;;;;;5.20;2.30;;;;;;;20.19;73.86;97057.31;10501440;28;20041;-73
2023/06/21 18:02:03;;;;;;;7.05;1.98;;;;;;;20.18;73.56;97044.91;10494258;28;20063;-73
2023/06/21 18:07:23;;;;;;;10.18;2.42;;;;;;;20.13;73.86;97056.69;10498797;28;20439;-73
2023/06/21 18:12:42;;;;;;;5.07;2.35;;;;;;;20.10;73.80;97068.94;10484319;28;20037;-73
2023/06/21 18:18:02;;;;;;;5.85;2.28;;;;;;;20.00;72.38;97082.03;10497792;28;20049;-74
2023/06/21 18:23:21;;;;;;;4.50;2.17;;;;;;;19.84;70.85;97090.63;10483690;28;20489;-73
2023/06/21 18:28:41;;;;;;;3.78;2.05;;;;;;;19.85;73.19;97094.91;10483612;28;20093;-73
2023/06/21 18:34:01;;;;;;;4.45;2.47;;;;;;;19.98;74.68;97095.06;10497827;28;20071;-73
2023/06/21 18:39:20;;;;;;;6.88;2.40;;;;;;;20.05;74.06;97084.53;10469545;28;20054;-73
2023/06/21 18:44:40;;;;;;;3.40;1.90;;;;;;;20.10;72.21;97087.09;10483383;28;20044;-74
2023/06/21 18:49:59;;;;;;;4.82;2.40;;;;;;;20.15;71.22;97105.88;10469747;28;20056;-74
2023/06/21 18:55:19;;;;;;;4.63;2.35;;;;;;;20.19;70.64;97123.03;10469416;28;20051;-73
2023/06/21 19:00:39;;;;;;;5.50;2.13;;;;;;;20.20;70.39;97105.69;10469031;28;20101;-78
2023/06/21 19:06:12;;;;;;;3.33;2.20;;;;;;;20.23;70.22;97109.66;10533183;27;20370;-52
2023/06/21 19:11:34;;;;;;;4.25;2.50;;;;;;;20.24;70.19;97127.50;10546927;28;20044;-52
2023/06/21 19:16:53;;;;;;;3.42;2.35;;;;;;;20.23;70.05;97134.81;10533331;28;20060;-53
2023/06/21 19:22:13;;;;;;;5.38;2.50;;;;;;;20.25;70.03;97145.31;10532814;28;20059;-53
2023/06/21 19:27:33;;;;;;;4.57;2.30;;;;;;;20.24;69.95;97158.03;10546236;28;20055;-53
2023/06/21 19:32:53;;;;;;;5.22;2.40;;;;;;;20.25;70.07;97165.03;10532160;28;20412;-54
2023/06/21 19:38:12;;;;;;;5.75;2.35;;;;;;;20.26;69.89;97176.66;10545872;28;20437;-56
2023/06/21 19:43:32;;;;;;;3.65;2.28;;;;;;;20.25;69.72;97180.50;10532128;28;20049;-57
2023/06/21 19:48:52;;;;;;;3.92;2.58;;;;;;;20.26;69.76;97180.16;10545381;28;20040;-58
2023/06/21 19:54:23;;;;;;;4.32;2.50;;;;;;;20.26;69.50;97192.88;10545092;28;20048;-55
2023/06/21 19:59:43;;;;;;;3.95;2.30;;;;;;;20.27;69.63;97183.69;10545006;28;20044;-55
2023/06/21 20:05:02;;;;;;;5.25;2.67;;;;;;;20.26;69.75;97182.84;10566438;28;20048;-54
2023/06/21 20:10:22;;;;;;;4.93;2.70;;;;;;;20.26;69.79;97185.56;10586816;28;20476;-55
2023/06/21 20:15:43;;;;;;;3.83;2.65;;;;;;;20.27;69.60;97187.16;10553465;28;20395;-54
2023/06/21 20:21:06;;;;;;;4.05;2.45;;;;;;;20.27;69.51;97202.59;10558055;28;20404;-55
2023/06/21 20:26:26;;;;;;;6.20;2.65;;;;;;;20.26;69.46;97201.78;10557958;28;20044;-55
2023/06/21 20:31:45;;;;;;;5.93;2.90;;;;;;;20.26;69.45;97201.00;10557817;28;20063;-54
2023/06/21 20:37:05;;;;;;;4.55;2.53;;;;;;;20.26;69.38;97190.97;10557543;28;20051;-54
2023/06/21 20:42:31;;;;;;;3.78;2.50;;;;;;;20.27;69.37;97198.00;10557251;28;20488;-53
2023/06/21 20:47:53;;;;;;;3.78;2.35;;;;;;;20.25;69.41;97194.81;10557132;28;20040;-54
2023/06/21 20:53:13;;;;;;;4.18;2.65;;;;;;;20.26;69.25;97193.69;10556936;28;20047;-54
2023/06/21 20:58:33;;;;;;;5.65;2.65;;;;;;;20.27;69.35;97189.09;10556762;28;20040;-55
2023/06/21 21:03:54;;;;;;;4.18;2.55;;;;;;;20.26;69.21;97185.56;10548748;28;20411;-55
2023/06/21 21:09:13;;;;;;;3.95;2.50;;;;;;;20.26;69.21;97184.78;10556317;28;20160;-56
2023/06/21 21:14:33;;;;;;;3.85;2.33;;;;;;;20.26;69.36;97174.75;10555984;28;20098;-55
2023/06/21 21:19:52;;;;;;;6.75;2.53;;;;;;;20.27;68.73;97173.63;10542185;28;20055;-55
2023/06/21 21:25:12;;;;;;;6.45;2.40;;;;;;;20.29;68.75;97176.03;10554557;28;20471;-55
2023/06/21 21:30:31;;;;;;;17.13;2.80;;;;;;;20.28;68.92;97172.50;10555540;28;20051;-55
2023/06/21 21:35:51;;;;;;;6.65;2.88;;;;;;;20.28;68.98;97177.13;10555406;28;20044;-55
2023/06/21 21:41:10;;;;;;;3.80;2.38;;;;;;;20.27;69.00;97179.06;10555125;28;20144;-55
2023/06/21 21:46:30;;;;;;;3.70;2.40;;;;;;;20.25;69.02;97183.97;10554931;28;20040;-55
2023/06/21 21:51:50;;;;;;;3.67;2.42;;;;;;;20.26;68.93;97187.47;10554694;28;20044;-54
2023/06/21 21:57:10;;;;;;;5.45;2.50;;;;;;;20.25;68.74;97194.81;10554482;28;20044;-55
2023/06/21 22:02:29;;;;;;;5.70;2.80;;;;;;;20.25;68.86;97183.97;10550359;28;20415;-55
2023/06/21 22:07:49;;;;;;;4.05;2.80;;;;;;;20.24;68.95;97190.50;10554084;28;20047;-55
2023/06/21 22:13:09;;;;;;;5.97;2.97;;;;;;;20.24;69.00;97201.31;10553818;28;20054;-55
2023/06/21 22:18:29;;;;;;;3.22;2.55;;;;;;;20.24;68.88;97189.72;10553620;28;20044;-55
2023/06/21 22:23:50;;;;;;;8.68;3.13;;;;;;;20.25;68.70;97181.28;10553253;28;20043;-55
2023/06/21 22:29:09;;;;;;;3.85;2.50;;;;;;;20.23;68.70;97183.50;10553354;28;20051;-55
2023/06/21 22:34:29;;;;;;;3.35;2.47;;;;;;;20.24;68.62;97190.50;10511105;28;20044;-55
2023/06/21 22:39:48;;;;;;;3.35;2.70;;;;;;;20.23;68.70;97205.16;10510728;28;20045;-55
2023/06/21 22:45:08;;;;;;;4.28;2.75;;;;;;;20.24;68.54;97209.44;10510673;28;20067;-55
2023/06/21 22:50:27;;;;;;;4.32;2.65;;;;;;;20.24;68.56;97198.63;10510649;28;20058;-55
2023/06/21 22:55:47;;;;;;;5.35;3.00;;;;;;;20.22;68.49;97190.03;10510475;28;20041;-55
2023/06/21 23:01:07;;;;;;;4.80;2.45;;;;;;;20.22;68.41;97184.59;10510196;28;20404;-55
2023/06/21 23:06:26;;;;;;;4.72;3.05;;;;;;;20.21;68.44;97180.34;10496980;28;20053;-55
2023/06/21 23:11:46;;;;;;;3.17;2.63;;;;;;;20.20;68.42;97189.53;10510039;28;20040;-55
2023/06/21 23:17:08;;;;;;;4.50;2.90;;;;;;;20.21;68.27;97191.16;10510003;28;20045;-55
2023/06/21 23:22:28;;;;;;;5.13;2.65;;;;;;;20.21;68.25;97177.63;10509640;28;20051;-55
2023/06/21 23:27:47;;;;;;;4.45;2.72;;;;;;;20.19;68.08;97177.16;10509886;28;20041;-55
2023/06/21 23:33:07;;;;;;;8.45;2.80;;;;;;;20.20;67.99;97181.44;10509796;28;20053;-55
2023/06/21 23:38:28;;;;;;;5.22;2.70;;;;;;;20.19;68.05;97187.97;10509598;28;20404;-55
2023/06/21 23:43:52;;;;;;;5.80;3.00;;;;;;;20.20;67.90;97194.16;10509451;28;20040;-55
2023/06/21 23:49:12;;;;;;;4.05;3.00;;;;;;;20.19;67.88;97190.69;10511364;28;20048;-55
2023/06/21 23:54:31;;;;;;;5.15;3.13;;;;;;;20.19;67.77;97181.75;10517236;28;20040;-55
2023/06/21 23:59:51;;;;;;;3.47;3.00;;;;;;;20.18;67.99;97186.38;10516955;28;20090;-55
